Flight Track Log - Related Links

Times and Time Zones

All times are in EDT time to prevent confusion due to time zone crossing. See the N143DE flight status page for this flight to view local times or setup timezone preferences in your user account.

Time Position Orientation Groundspeed Altitude Reporting Facility
EDT Latitude Longitude Course Direction KTS MPH feet Rate Location/Type
Thu 01:28:52 PM 26.6750 -77.2889 299° West 259 298 12,500  Level Miami Center
Thu 01:29:52 PM 26.7000 -77.3447 297° West 234 269 14,300 1,750 Climbing Miami Center
Thu 01:30:52 PM 26.7269 -77.3892 304° West 205 236 16,000 1,550 Climbing Miami Center
Thu 01:31:52 PM 26.7497 -77.4450 295° West 187 215 17,400 1,150 Climbing Miami Center
Thu 01:32:52 PM 26.7725 -77.4939 298° West 182 209 18,300 1,000 Climbing Miami Center
Thu 01:33:00 PM 26.6735 -77.4304 299° West  Level FlightAware
Thu 01:33:52 PM 26.7953 -77.5453 296° West 195 224 19,400  Level Miami Center
Thu 01:34:00 PM 26.7083 -77.4999 299° West  Level FlightAware
Thu 01:34:52 PM 26.8242 -77.5919 305° West 188 216 20,400  Level Miami Center
Thu 01:35:52 PM 26.8511 -77.6667 292° West 208 239 21,400 850 Climbing Miami Center
Thu 01:36:52 PM 26.8800 -77.7111 306° West 206 237 22,100 300 Climbing Miami Center
Thu 01:37:52 PM 26.9108 -77.7861 295° West 229 264 22,000 -50 Descending Miami Center
Thu 01:38:52 PM 26.9461 -77.8539 300° West 248 285 22,000  Level Miami Center
Thu 01:39:52 PM 26.9808 -77.9286 298° West 260 299 22,000  Level Miami Center
Thu 01:40:52 PM 27.0181 -78.0014 300° West 266 306 22,000  Level Miami Center
Thu 01:41:52 PM 27.0531 -78.0742 298° West 266 306 22,000  Level Miami Center
Thu 01:42:52 PM 27.0878 -78.1539 296° West 272 313 22,000  Level Miami Center
Thu 01:43:52 PM 27.1225 -78.2289 297° West 266 306 22,000  Level Miami Center
Thu 01:44:52 PM 27.1553 -78.3086 295° West 266 306 22,000  Level Miami Center
Thu 01:45:52 PM 27.2003 -78.3864 303° West 271 312 22,000  Level Miami Center
Thu 01:46:52 PM 27.2392 -78.4592 301° West 271 312 22,000  Level Miami Center
Thu 01:47:52 PM 27.2697 -78.5344 295° West 271 312 22,000  Level Miami Center
Thu 01:48:52 PM 27.3022 -78.6119 295° West 271 312 22,000  Level Miami Center
Thu 01:49:52 PM 27.3433 -78.6806 304° West 265 305 22,000  Level Miami Center
Thu 01:50:52 PM 27.3778 -78.7558 297° West 265 305 22,000  Level Miami Center
Thu 01:51:52 PM 27.4081 -78.8311 294° West 270 311 22,000  Level Miami Center
Thu 01:52:52 PM 27.4425 -78.8972 300° West 265 305 22,000  Level Miami Center
Thu 01:53:52 PM 27.4789 -78.9822 296° West 260 299 22,000  Level Miami Center
Thu 01:54:52 PM 27.5156 -79.0556 299° West 266 306 22,000  Level Miami Center
Thu 01:55:52 PM 27.5478 -79.1311 296° West 266 306 22,000  Level Miami Center
Thu 01:56:52 PM 27.5781 -79.1997 296° West 266 306 22,000  Level Miami Center
Thu 01:57:52 PM 27.6144 -79.2708 300° West 266 306 22,000  Level Miami Center
Thu 01:58:52 PM 27.6525 -79.3558 297° West 266 306 22,000  Level Miami Center
Thu 01:59:52 PM 27.6867 -79.4317 297° West 266 306 22,000  Level Miami Center
Thu 02:00:52 PM 27.7231 -79.5053 299° West 266 306 22,000  Level Miami Center
Thu 02:01:52 PM 27.7511 -79.5739 295° West 261 300 22,000  Level Miami Center
Thu 02:02:52 PM 27.7872 -79.6475 299° West 261 300 22,000  Level Miami Center
Thu 02:03:52 PM 27.8233 -79.7258 298° West 261 300 22,000  Level Miami Center
Thu 02:04:52 PM 27.8572 -79.8019 297° West 261 300 22,000  Level Miami Center
Thu 02:05:52 PM 27.8889 -79.8781 295° West 261 300 22,000  Level Miami Center
Thu 02:06:52 PM 27.9211 -79.9422 300° West 266 306 22,000  Level Miami Center
Thu 02:07:52 PM 27.9589 -80.0233 298° West 266 306 22,000 350 Level Miami Center
Thu 02:08:52 PM 27.9908 -80.0969 296° West 260 299 22,700 500 Climbing Miami Center
Thu 02:09:52 PM 28.0225 -80.1661 297° West 260 299 23,000 150 Climbing Miami Center
Thu 02:10:52 PM 28.0503 -80.2306 296° West 255 293 23,000  Level Miami Center
Thu 02:11:52 PM 28.0839 -80.3044 297° West 260 299 23,000  Level Miami Center
Thu 02:12:52 PM 28.1217 -80.3856 298° West 260 299 23,000  Level Miami Center
Thu 02:13:52 PM 28.1553 -80.4597 297° West 265 305 23,000  Level Miami Center
Thu 02:14:52 PM 28.1889 -80.5383 296° West 265 305 23,000  Level Miami Center
Thu 02:15:52 PM 28.2225 -80.6103 298° West 265 305 23,000  Level Miami Center
Thu 02:16:52 PM 28.2558 -80.6867 296° West 265 305 23,000  Level Miami Center
Thu 02:18:39 PM 28.3128 -80.8178 296° West 269 310 23,000  Level Jacksonville Center
Thu 02:19:39 PM 28.3450 -80.8925 296° West 269 310 23,000  Level Jacksonville Center
Thu 02:20:39 PM 28.3797 -80.9672 298° West 269 310 23,000 50 Level Jacksonville Center
Thu 02:21:40 PM 28.4222 -81.0303 307° West 269 310 23,100 50 Climbing Jacksonville Center
Thu 02:22:39 PM 28.4894 -81.0597 339° North 257 296 23,100  Level Jacksonville Center
Thu 02:23:39 PM 28.5589 -81.0869 341° North 257 296 23,100 -50 Level Jacksonville Center
Thu 02:24:39 PM 28.6281 -81.1164 340° North 262 302 23,000 -50 Descending Jacksonville Center
Thu 02:25:39 PM 28.6972 -81.1436 341° North 262 302 23,000 50 Level Jacksonville Center
Thu 02:26:39 PM 28.7667 -81.1731 340° North 262 302 23,100 50 Climbing Jacksonville Center
Thu 02:27:39 PM 28.8378 -81.2003 341° North 262 302 23,100  Level Jacksonville Center
Thu 02:28:39 PM 28.9053 -81.2369 335° Northwest 262 302 23,100  Level Jacksonville Center
Thu 02:29:39 PM 28.9683 -81.2789 330° Northwest 267 307 23,100  Level Jacksonville Center
Thu 02:30:39 PM 29.0356 -81.3156 335° Northwest 267 307 23,100  Level Jacksonville Center
Thu 02:31:39 PM 29.1008 -81.3597 329° Northwest 267 307 23,100  Level Jacksonville Center
Thu 02:32:39 PM 29.1681 -81.3992 333° Northwest 272 313 23,100  Level Jacksonville Center
Thu 02:33:39 PM 29.2417 -81.4481 330° Northwest 272 313 23,100  Level Jacksonville Center
Thu 02:34:39 PM 29.3089 -81.4875 333° Northwest 272 313 23,100  Level Jacksonville Center
Thu 02:35:39 PM 29.3761 -81.5294 331° Northwest 272 313 23,100  Level Jacksonville Center
Thu 02:36:39 PM 29.4433 -81.5689 333° Northwest 272 313 23,100  Level Jacksonville Center
Thu 02:37:39 PM 29.5147 -81.5944 343° North 272 313 23,100  Level Jacksonville Center
Thu 02:38:39 PM 29.5858 -81.6244 340° North 266 306 23,100  Level Jacksonville Center
Thu 02:39:39 PM 29.6592 -81.6522 342° North 272 313 23,100  Level Jacksonville Center
Thu 02:40:39 PM 29.7306 -81.6800 341° North 272 313 23,100  Level Jacksonville Center
Thu 02:41:39 PM 29.8039 -81.7078 342° North 272 313 23,100  Level Jacksonville Center
Thu 02:42:39 PM 29.8750 -81.7381 340° North 272 313 23,100  Level Jacksonville Center
Thu 02:43:39 PM 29.9464 -81.7636 343° North 272 313 23,100  Level Jacksonville Center
Thu 02:44:39 PM 30.0197 -81.7964 339° North 272 313 23,100  Level Jacksonville Center
Thu 02:45:39 PM 30.0825 -81.8172 344° North 272 313 23,100  Level Jacksonville Center
Thu 02:46:39 PM 30.1558 -81.8475 340° North 272 313 23,100  Level Jacksonville Center
Thu 02:47:39 PM 30.2292 -81.8733 343° North 272 313 23,100  Level Jacksonville Center
Thu 02:48:39 PM 30.3003 -81.9039 340° North 266 306 23,100  Level Jacksonville Center
Thu 02:49:39 PM 30.3736 -81.9294 343° North 272 313 23,100  Level Jacksonville Center
Thu 02:50:39 PM 30.4469 -81.9625 339° North 272 313 23,100  Level Jacksonville Center
Thu 02:51:39 PM 30.5200 -81.9883 343° North 272 313 23,100  Level Jacksonville Center
Thu 02:52:39 PM 30.5933 -82.0239 337° Northwest 277 319 23,100  Level Jacksonville Center
Thu 02:53:39 PM 30.6667 -82.0522 342° North 277 319 23,100  Level Jacksonville Center
Thu 02:54:39 PM 30.7400 -82.0828 340° North 272 313 23,100  Level Jacksonville Center
Thu 02:55:39 PM 30.8133 -82.1136 340° North 272 313 23,100  Level Jacksonville Center
Thu 02:56:39 PM 30.8864 -82.1422 341° North 272 313 23,100  Level Jacksonville Center
Thu 02:57:39 PM 30.9597 -82.1731 340° North 272 313 23,100  Level Jacksonville Center
Thu 02:58:39 PM 31.0331 -82.2017 342° North 272 313 23,100  Level Jacksonville Center
Thu 02:59:39 PM 31.1083 -82.2278 343° North 272 313 23,100  Level Jacksonville Center
Thu 03:00:39 PM 31.1836 -82.2467 348° North 272 313 23,100  Level Jacksonville Center
Thu 03:01:39 PM 31.2589 -82.2656 348° North 272 313 23,100  Level Jacksonville Center
Thu 03:02:39 PM 31.3361 -82.2894 345° North 277 319 23,100  Level Jacksonville Center
Thu 03:03:39 PM 31.4114 -82.3108 346° North 277 319 23,100 -50 Level Jacksonville Center
Thu 03:04:39 PM 31.4867 -82.3347 345° North 282 325 23,000 -50 Descending Jacksonville Center
Thu 03:05:39 PM 31.5619 -82.3586 345° North 275 316 23,000 -150 Level Jacksonville Center
Thu 03:06:39 PM 31.6372 -82.3778 348° North 275 316 22,700 -400 Descending Jacksonville Center
Thu 03:07:39 PM 31.7167 -82.4042 344° North 281 323 22,200 -350 Descending Jacksonville Center
Thu 03:08:39 PM 31.7961 -82.4281 346° North 281 323 22,000 -99 Descending Jacksonville Center
Thu 03:09:40 PM 31.8736 -82.4522 345° North 286 329 22,000  Level Jacksonville Center
Thu 03:10:39 PM 31.9444 -82.4886 336° Northwest 281 323 22,000  Level Jacksonville Center
Thu 03:11:42 PM 32.0256 -82.5347 334° Northwest 279 321 22,000  Level Atlanta Center
Thu 03:12:42 PM 32.0969 -82.5753 334° Northwest 274 315 22,000  Level Atlanta Center
Thu 03:13:42 PM 32.1661 -82.6133 335° Northwest 274 315 22,000  Level Atlanta Center
Thu 03:14:42 PM 32.2375 -82.6514 336° Northwest 274 315 22,000  Level Atlanta Center
Thu 03:15:42 PM 32.3069 -82.6922 334° Northwest 274 315 22,000  Level Atlanta Center
Thu 03:16:42 PM 32.3806 -82.7328 335° Northwest 281 323 22,000  Level Atlanta Center
Thu 03:17:42 PM 32.4519 -82.7711 336° Northwest 281 323 22,000  Level Atlanta Center
Thu 03:18:42 PM 32.5106 -82.8047 334° Northwest 281 323 22,000 -600 Level Atlanta Center
Thu 03:19:42 PM 32.5903 -82.8506 334° Northwest 281 323 20,800 -1,750 Descending Atlanta Center
Thu 03:20:42 PM 32.6639 -82.8964 332° Northwest 286 329 18,500 -2,200 Descending Atlanta Center
Thu 03:21:42 PM 32.7458 -82.9472 332° Northwest 296 341 16,400 -1,900 Descending Atlanta Center
Thu 03:22:42 PM 32.8044 -82.9933 327° Northwest 296 341 14,700 -1,950 Descending Atlanta Center
Thu 03:23:42 PM 32.8636 -83.0619 316° Northwest 290 334 12,500 -1,750 Descending Atlanta Center
Thu 03:24:42 PM 32.9183 -83.1233 317° Northwest 284 327 11,200 -1,250 Descending Atlanta Center
Thu 03:25:42 PM 32.9731 -83.1869 316° Northwest 264 304 10,000 -600 Descending Atlanta Center
Thu 03:26:42 PM 33.0172 -83.2386 316° Northwest 248 285 10,000  Level Atlanta Center
Thu 03:27:42 PM 33.0508 -83.2781 315° West 229 264 10,000  Level Atlanta Center
Thu 03:28:42 PM 33.1056 -83.3319 320° Northwest 223 257 10,000 -300 Level Atlanta Center
Thu 03:29:42 PM 33.1600 -83.3764 326° Northwest 223 257 9,400 -650 Descending Atlanta Center
Thu 03:30:42 PM 33.2103 -83.4256 321° Northwest 233 268 8,700 -700 Descending Atlanta Center
Thu 03:31:42 PM 33.2525 -83.4825 312° West 225 259 8,000 -204 Descending Atlanta Center
Thu 03:34:08 PM 33.3500 -83.6167 311° West 238 274 8,000  Level Atlanta TRACON
Thu 03:35:14 PM 33.4167 -83.6833 320° Northwest 254 292 8,000 -238 Level Atlanta TRACON
Thu 03:36:14 PM 33.4667 -83.7333 320° Northwest 268 308 7,500 -524 Descending Atlanta TRACON
Thu 03:37:20 PM 33.5333 -83.7833 328° Northwest 260 299 6,900 -700 Descending Atlanta TRACON
Thu 03:38:14 PM 33.6000 -83.8167 337° Northwest 226 260 6,100 -895 Descending Atlanta TRACON
Thu 03:39:14 PM 33.6500 -83.8500 331° Northwest 221 254 5,200 -857 Descending Atlanta TRACON
Thu 03:40:20 PM 33.7000 -83.8833 331° Northwest 199 229 4,300 -600 Descending Atlanta TRACON
Thu 03:41:14 PM 33.7500 -83.9000 345° North 189 217 4,000 -150 Descending Atlanta TRACON
Thu 03:42:20 PM 33.7833 -83.9333 320° Northwest 187 215 4,000  Level Atlanta TRACON
Thu 03:43:26 PM 33.8500 -83.9833 328° Northwest 193 222 4,000 -150 Level Atlanta TRACON
Thu 03:44:20 PM 33.8833 -84.0000 337° Northwest 197 227 3,700 -526 Descending Atlanta TRACON
Thu 03:45:20 PM 33.9333 -84.0500 320° Northwest 196 226 3,000 -368 Descending Atlanta TRACON
Thu 03:46:14 PM 33.9667 -84.0833 320° Northwest 176 203 3,000  Level Atlanta TRACON
Thu 03:47:14 PM 34.0000 -84.1167 320° Northwest 197 227 3,000  Level Atlanta TRACON
Thu 03:48:14 PM 34.0333 -84.1667 309° West 171 197 3,000  Level Atlanta TRACON
Thu 03:49:08 PM 34.0333 -84.2167 270° West 156 180 3,000  Level Atlanta TRACON
Thu 03:50:14 PM 34.0000 -84.2500 220° Southwest 114 131 3,000 -50 Level Atlanta TRACON
Thu 03:51:08 PM 33.9833 -84.2500 180° South 102 117 2,900 -300 Descending Atlanta TRACON
Thu 03:52:14 PM 33.9500 -84.2667 203° Southwest 117 135 2,400 -524 Descending Atlanta TRACON
Thu 03:53:14 PM 33.9167 -84.2833 203° Southwest 103 119 1,800 -600 Descending Atlanta TRACON
Thu 03:55:00 PM 33.8756 -84.3020 220° Southwest  Level Estimated
Thu 04:02:00 PM 33.8756 -84.3020 220° Southwest  Level Estimated

Login

Don't have an account? Register now (free) for customized features, flight alerts, and more!